Time;durP1;ratioP1;P1;durP2;ratioP2;P2;SDS_P1;SDS_P2;PMS_P1;PMS_P2;Temp;Humidity;BMP_temperature;BMP_pressure;BME280_temperature;BME280_humidity;BME280_pressure;Samples;Min_cycle;Max_cycle;Signal;HPM_P1;HPM_P2
2022/08/15 00:00:36;;;;;;;4.72;3.83;;;;;;;19.77;100.00;97379.91;1725678;81;28225;-89
2022/08/15 00:03:05;;;;;;;6.50;4.12;;;;;;;19.76;100.00;97387.55;1728908;80;28078;-90
2022/08/15 00:05:33;;;;;;;5.55;3.72;;;;;;;19.84;100.00;97382.95;1726899;80;28246;-87
2022/08/15 00:07:59;;;;;;;6.60;3.50;;;;;;;19.91;100.00;97381.16;1741250;80;28055;-88
2022/08/15 00:10:26;;;;;;;4.03;3.58;;;;;;;19.90;100.00;97380.04;1722551;80;28014;-89
2022/08/15 00:12:52;;;;;;;4.50;3.33;;;;;;;19.89;100.00;97378.39;1737726;80;28071;-89
2022/08/15 00:15:19;;;;;;;3.98;3.33;;;;;;;19.98;100.00;97374.07;1741788;80;28062;-87
2022/08/15 00:17:48;;;;;;;6.62;4.00;;;;;;;20.05;100.00;97371.48;1741370;80;28010;-88
2022/08/15 00:20:15;;;;;;;5.08;3.30;;;;;;;20.13;100.00;97372.64;1745306;80;28091;-88
2022/08/15 00:22:50;;;;;;;6.10;3.50;;;;;;;20.19;100.00;97369.72;1740365;80;28034;-88
2022/08/15 00:25:17;;;;;;;6.08;4.03;;;;;;;20.12;100.00;97372.86;1728719;80;28214;-88
2022/08/15 00:27:43;;;;;;;3.87;3.37;;;;;;;20.12;100.00;97364.39;1732742;80;28082;-87
2022/08/15 00:30:11;;;;;;;5.35;3.58;;;;;;;20.16;100.00;97364.31;1740384;80;28234;-90
2022/08/15 00:32:37;;;;;;;4.33;3.60;;;;;;;20.16;100.00;97364.31;1732378;80;28122;-89
2022/08/15 00:35:35;;;;;;;4.78;3.37;;;;;;;20.16;100.00;97362.16;1737851;80;28093;-86
2022/08/15 00:37:37;;;;;;;4.87;3.30;;;;;;;20.12;100.00;97369.70;1723682;80;28123;-89
2022/08/15 00:40:03;;;;;;;;;;;;;;;20.08;100.00;97364.94;1738236;80;28136;-89
2022/08/15 00:42:29;;;;;;;;;;;;;;;20.07;100.00;97366.80;1737020;80;22045;-88
2022/08/15 00:44:57;;;;;;;;;;;;;;;19.94;100.00;97372.00;1753314;80;26084;-86
2022/08/15 00:47:26;;;;;;;5.45;3.22;;;;;;;19.69;100.00;97370.27;1731091;80;24450;-87
2022/08/15 00:49:52;;;;;;;9.27;3.27;;;;;;;19.53;100.00;97371.81;1728014;80;28042;-86
2022/08/15 00:52:27;;;;;;;6.65;3.45;;;;;;;19.45;100.00;97375.42;1725985;80;28236;-86
2022/08/15 00:55:04;;;;;;;5.15;3.52;;;;;;;19.47;100.00;97366.78;1734601;80;28077;-89
2022/08/15 00:57:33;;;;;;;5.75;3.20;;;;;;;19.53;100.00;97370.48;1714666;81;28173;-89
2022/08/15 01:00:06;;;;;;;5.42;3.55;;;;;;;19.39;100.00;97366.03;1728998;80;28134;-89
2022/08/15 01:02:34;;;;;;;4.72;3.72;;;;;;;19.30;100.00;97368.00;1720880;81;28168;-89
2022/08/15 01:05:02;;;;;;;5.45;3.58;;;;;;;19.20;100.00;97367.48;1723929;80;28136;-87
2022/08/15 01:07:29;;;;;;;4.53;3.55;;;;;;;19.15;100.00;97365.36;1741342;80;28271;-88
2022/08/15 01:09:55;;;;;;;4.80;3.52;;;;;;;19.24;100.00;97360.78;1731102;80;28161;-89
2022/08/15 01:12:24;;;;;;;5.95;3.77;;;;;;;19.37;100.00;97362.73;1722944;80;28094;-86
2022/08/15 01:14:54;;;;;;;6.42;3.27;;;;;;;19.46;100.00;97357.17;1736884;81;28105;-88
2022/08/15 01:17:22;;;;;;;5.65;3.40;;;;;;;19.51;100.00;97355.27;1736086;80;28073;-87
2022/08/15 01:19:55;;;;;;;6.00;3.37;;;;;;;19.55;100.00;97355.20;1731973;80;28098;-86
2022/08/15 01:22:50;;;;;;;6.78;3.58;;;;;;;19.55;100.00;97358.69;1731366;81;28060;-86
2022/08/15 01:25:27;;;;;;;5.37;3.45;;;;;;;19.59;100.00;97357.28;1737232;80;27994;-88
2022/08/15 01:28:05;;;;;;;5.90;3.75;;;;;;;19.55;100.00;97361.84;1728096;80;28074;-87
2022/08/15 01:30:35;;;;;;;5.75;3.35;;;;;;;19.48;100.00;97351.16;1730937;81;28119;-89
2022/08/15 01:33:01;;;;;;;6.83;3.47;;;;;;;19.51;100.00;97349.97;1712697;80;28065;-88
2022/08/15 01:35:28;;;;;;;5.62;3.45;;;;;;;19.54;100.00;97357.03;1728332;80;28059;-89
2022/08/15 01:37:56;;;;;;;5.95;3.70;;;;;;;19.42;100.00;97355.06;1738221;80;28530;-88
2022/08/15 01:40:33;;;;;;;4.08;3.12;;;;;;;19.20;100.00;97355.02;1726726;80;28167;-89
2022/08/15 01:43:00;;;;;;;3.70;3.10;;;;;;;19.09;100.00;97354.17;1736188;80;28076;-86
2022/08/15 01:45:32;;;;;;;5.47;3.52;;;;;;;19.16;100.00;97359.56;1738395;80;28077;-89
2022/08/15 01:48:22;;;;;;;4.42;3.12;;;;;;;19.18;100.00;97354.40;1740205;80;28146;-86
2022/08/15 01:50:51;;;;;;;4.45;3.25;;;;;;;19.17;100.00;97353.25;1748725;80;28139;-89
2022/08/15 01:53:27;;;;;;;3.80;3.27;;;;;;;19.12;100.00;97352.99;1730315;80;28081;-88
2022/08/15 01:55:57;;;;;;;4.22;3.17;;;;;;;19.00;100.00;97347.84;1747095;80;28250;-88
2022/08/15 01:58:24;;;;;;;5.12;3.35;;;;;;;19.03;100.00;97352.30;1728372;81;28274;-87
2022/08/15 02:01:00;;;;;;;5.12;3.70;;;;;;;19.00;100.00;97347.84;1699589;82;28182;-89
2022/08/15 02:03:34;;;;;;;7.42;3.52;;;;;;;18.90;100.00;97351.30;1680199;82;28049;-85
2022/08/15 02:06:20;;;;;;;7.12;3.80;;;;;;;18.80;100.00;97347.13;1707960;81;28035;-86
2022/08/15 02:08:48;;;;;;;5.10;3.50;;;;;;;18.86;100.00;97345.56;1738817;80;28287;-88
2022/08/15 02:11:17;;;;;;;3.80;3.37;;;;;;;18.98;100.00;97344.58;1733254;80;28068;-88
2022/08/15 02:13:46;;;;;;;5.72;3.87;;;;;;;19.04;100.00;97349.11;1736031;80;28106;-88
2022/08/15 02:16:15;;;;;;;6.70;3.75;;;;;;;19.09;100.00;97358.16;1698094;83;28147;-88
2022/08/15 02:18:41;;;;;;;5.70;3.60;;;;;;;19.12;100.00;97354.31;1695927;82;28532;-89
2022/08/15 02:21:09;;;;;;;5.30;3.70;;;;;;;19.13;100.00;97358.12;1693955;81;28113;-88
2022/08/15 02:23:36;;;;;;;4.45;3.90;;;;;;;19.16;100.00;97352.92;1690323;83;28011;-89
2022/08/15 02:26:04;;;;;;;5.15;3.92;;;;;;;19.18;100.00;97350.92;1668882;83;28150;-88
2022/08/15 02:28:31;;;;;;;6.75;3.55;;;;;;;19.18;100.00;97356.22;1663036;84;28128;-86
2022/08/15 02:30:59;;;;;;;4.42;3.87;;;;;;;19.19;100.00;97353.90;1700747;82;28124;-90
2022/08/15 02:33:28;;;;;;;5.72;3.85;;;;;;;19.19;100.00;97361.35;1703685;82;28094;-87
2022/08/15 02:35:58;;;;;;;6.75;3.80;;;;;;;19.16;100.00;97356.41;1709079;82;28172;-86
2022/08/15 02:38:24;;;;;;;5.03;3.47;;;;;;;19.12;100.00;97359.62;1714684;81;28116;-88
2022/08/15 02:40:51;;;;;;;4.15;3.40;;;;;;;18.91;100.00;97349.80;1690867;82;43102;-89
2022/08/15 02:43:18;;;;;;;6.15;3.62;;;;;;;18.67;100.00;97348.77;1743184;80;28263;-86
2022/08/15 02:45:50;;;;;;;5.55;3.25;;;;;;;18.65;100.00;97346.33;1736592;80;28183;-89
2022/08/15 02:48:18;;;;;;;4.42;3.70;;;;;;;18.72;100.00;97339.25;1673591;83;28095;-86
2022/08/15 02:50:45;;;;;;;6.05;4.00;;;;;;;18.77;100.00;97343.50;1680129;83;28285;-88
2022/08/15 02:53:15;;;;;;;4.33;3.50;;;;;;;18.69;100.00;97342.29;1673853;83;28136;-86
2022/08/15 02:55:44;;;;;;;3.90;3.37;;;;;;;18.66;100.00;97343.97;1707846;81;28056;-87
2022/08/15 02:58:16;;;;;;;5.62;3.87;;;;;;;18.70;100.00;97334.66;1678500;83;28235;-87
2022/08/15 03:00:45;;;;;;;8.38;4.00;;;;;;;18.75;100.00;97333.60;1671553;83;28269;-86
2022/08/15 03:03:14;;;;;;;6.22;3.80;;;;;;;18.80;100.00;97328.56;1740620;80;28275;-87
2022/08/15 03:05:44;;;;;;;6.67;3.85;;;;;;;18.79;100.00;97328.74;1736204;80;28242;-86
2022/08/15 03:08:11;;;;;;;5.40;3.98;;;;;;;18.74;100.00;97320.52;1735191;80;28114;-90
2022/08/15 03:10:39;;;;;;;5.50;4.10;;;;;;;18.68;100.00;97327.39;1703686;81;28224;-87
2022/08/15 03:15:45;;;;;;;5.47;4.58;;;;;;;18.63;100.00;97327.13;1689076;82;28112;-88
2022/08/15 03:18:13;;;;;;;7.08;4.75;;;;;;;18.57;100.00;97319.91;1679174;82;28072;-87
2022/08/15 03:20:41;;;;;;;7.28;4.20;;;;;;;18.55;100.00;97321.91;1724616;80;28161;-89
2022/08/15 03:23:08;;;;;;;6.33;4.72;;;;;;;18.53;100.00;97322.58;1742959;80;28107;-86
2022/08/15 03:25:40;;;;;;;4.62;4.08;;;;;;;18.54;100.00;97332.21;1727361;81;28009;-86
2022/08/15 03:28:08;;;;;;;6.03;4.42;;;;;;;18.57;100.00;97333.66;1738114;80;28085;-88
2022/08/15 03:30:36;;;;;;;6.17;4.35;;;;;;;18.58;100.00;97333.98;1740806;80;28150;-89
2022/08/15 03:33:03;;;;;;;6.15;4.22;;;;;;;18.55;100.00;97335.16;1736100;80;28093;-87
2022/08/15 03:35:33;;;;;;;7.00;4.87;;;;;;;18.49;100.00;97334.56;1730802;80;28065;-89
2022/08/15 03:38:00;;;;;;;4.95;4.15;;;;;;;18.37;100.00;97336.02;1698814;82;28077;-86
2022/08/15 03:40:28;;;;;;;7.20;4.53;;;;;;;18.25;100.00;97336.14;1708249;82;28142;-89
2022/08/15 03:43:19;;;;;;;8.28;5.03;;;;;;;18.24;100.00;97333.99;1696935;82;28014;-88
2022/08/15 03:45:51;;;;;;;4.07;3.13;;;;;;;18.36;100.00;97333.87;1730259;80;35168;-89
2022/08/15 03:48:19;;;;;;;6.17;4.45;;;;;;;18.46;100.00;97333.59;1731316;80;28190;-89
2022/08/15 03:50:46;;;;;;;6.47;4.30;;;;;;;18.51;100.00;97336.50;1731640;80;28256;-86
2022/08/15 03:53:12;;;;;;;5.28;3.72;;;;;;;18.54;100.00;97340.63;1722607;80;28118;-86
2022/08/15 03:55:40;;;;;;;6.37;3.80;;;;;;;18.49;100.00;97333.73;1734728;80;43144;-86
2022/08/15 03:58:10;;;;;;;5.50;3.55;;;;;;;18.31;100.00;97338.07;1731612;80;28229;-86
2022/08/15 04:03:15;;;;;;;4.50;3.67;;;;;;;18.04;100.00;97347.45;1727508;80;28145;-86
2022/08/15 04:05:44;;;;;;;7.83;3.25;;;;;;;18.02;100.00;97348.13;1744517;80;28083;-87
2022/08/15 04:08:11;;;;;;;4.85;2.98;;;;;;;17.94;100.00;97348.22;1729343;81;27973;-87
2022/08/15 04:10:38;;;;;;;4.47;3.35;;;;;;;17.80;100.00;97351.63;1726340;80;28102;-87
2022/08/15 04:13:06;;;;;;;3.87;3.47;;;;;;;17.70;100.00;97347.91;1719635;80;28017;-87
2022/08/15 04:15:39;;;;;;;5.85;3.55;;;;;;;17.73;100.00;97346.22;1734583;80;28054;-87
2022/08/15 04:18:05;;;;;;;5.45;3.70;;;;;;;17.93;100.00;97345.23;1740101;80;28002;-87
2022/08/15 04:20:31;;;;;;;3.75;3.17;;;;;;;18.10;100.00;97339.29;1740164;80;28226;-87
2022/08/15 04:22:57;;;;;;;5.35;3.70;;;;;;;18.25;100.00;97335.64;1729486;80;28112;-87
2022/08/15 04:25:30;;;;;;;7.37;3.95;;;;;;;18.35;100.00;97334.05;1725809;81;28144;-88
2022/08/15 04:28:04;;;;;;;6.70;3.75;;;;;;;18.46;100.00;97331.44;1676459;83;28625;-88
2022/08/15 04:30:37;;;;;;;4.35;3.92;;;;;;;18.54;100.00;97333.54;1672753;83;28077;-87
2022/08/15 04:33:12;;;;;;;6.42;4.05;;;;;;;18.66;100.00;97341.81;1680633;83;28121;-87
2022/08/15 04:35:44;;;;;;;6.40;3.67;;;;;;;18.63;100.00;97340.87;1724369;80;28159;-88
2022/08/15 04:38:10;;;;;;;4.92;3.60;;;;;;;18.51;100.00;97340.48;1656561;83;28132;-86
2022/08/15 04:40:37;;;;;;;7.87;3.90;;;;;;;18.48;100.00;97340.03;1673022;83;28119;-86
2022/08/15 04:43:04;;;;;;;6.60;4.60;;;;;;;18.57;100.00;97331.01;1661911;84;28021;-88
2022/08/15 04:45:30;;;;;;;5.83;4.20;;;;;;;18.68;100.00;97331.36;1727992;80;28251;-87
2022/08/15 04:48:02;;;;;;;5.80;4.10;;;;;;;18.72;100.00;97325.18;1736548;80;28224;-85
2022/08/15 04:50:26;;;;;;;5.42;4.40;;;;;;;18.74;100.00;97329.30;1731897;80;28259;-85
2022/08/15 04:52:55;;;;;;;4.97;3.92;;;;;;;18.74;100.00;97325.83;1739045;80;28083;-85
2022/08/15 04:55:24;;;;;;;6.45;4.55;;;;;;;18.73;100.00;97326.83;1740514;81;28184;-88
2022/08/15 04:57:58;;;;;;;5.40;4.40;;;;;;;18.76;100.00;97331.78;1739789;80;28097;-88
2022/08/15 05:00:28;;;;;;;7.50;4.70;;;;;;;18.76;100.00;97324.62;1725536;80;28139;-89
2022/08/15 05:03:00;;;;;;;7.10;4.20;;;;;;;18.79;100.00;97318.97;1729164;80;28071;-89
2022/08/15 05:05:28;;;;;;;6.25;3.80;;;;;;;18.80;100.00;97322.44;1733513;80;28101;-89
2022/08/15 05:07:55;;;;;;;5.50;3.87;;;;;;;18.82;100.00;97320.94;1733735;80;28103;-88
2022/08/15 05:10:22;;;;;;;4.83;4.20;;;;;;;18.84;100.00;97320.23;1728056;80;28077;-87
2022/08/15 05:12:48;;;;;;;5.05;4.37;;;;;;;18.89;100.00;97315.19;1692943;81;28099;-87
2022/08/15 05:15:20;;;;;;;5.70;4.08;;;;;;;18.90;100.00;97314.19;1680028;83;28139;-90
2022/08/15 05:17:47;;;;;;;6.80;4.20;;;;;;;18.93;100.00;97311.97;1672139;83;28129;-88
2022/08/15 05:20:17;;;;;;;4.50;3.95;;;;;;;19.02;100.00;97321.98;1675121;83;28113;-89
2022/08/15 05:23:02;;;;;;;5.35;3.80;;;;;;;19.06;100.00;97320.59;1733861;80;27987;-88
2022/08/15 05:25:30;;;;;;;5.03;4.15;;;;;;;19.10;100.00;97319.20;1739559;80;28175;-88
2022/08/15 05:27:59;;;;;;;5.15;4.12;;;;;;;19.11;100.00;97315.53;1747529;80;28249;-87
2022/08/15 05:30:26;;;;;;;5.72;4.00;;;;;;;19.17;100.00;97320.09;1729414;80;28154;-85
2022/08/15 05:33:05;;;;;;;5.53;4.25;;;;;;;19.14;100.00;97321.31;1725652;80;28109;-86
2022/08/15 05:35:35;;;;;;;5.50;4.15;;;;;;;19.16;100.00;97319.77;1734410;80;28040;-86
2022/08/15 05:38:05;;;;;;;5.08;4.28;;;;;;;19.25;100.00;97323.97;1741015;80;28117;-87
2022/08/15 05:40:34;;;;;;;6.83;4.25;;;;;;;19.39;100.00;97332.36;1742252;80;28096;-88
2022/08/15 05:43:05;;;;;;;5.35;4.10;;;;;;;19.45;100.00;97331.64;1740061;80;28227;-87
2022/08/15 05:45:37;;;;;;;5.70;4.15;;;;;;;19.44;100.00;97332.61;1734513;80;28170;-87
2022/08/15 05:48:07;;;;;;;6.12;4.10;;;;;;;19.47;100.00;97330.95;1725392;80;28069;-89
2022/08/15 05:50:40;;;;;;;6.25;4.47;;;;;;;19.64;100.00;97329.66;1728187;80;28140;-89
2022/08/15 05:53:10;;;;;;;6.03;4.10;;;;;;;19.78;100.00;97325.80;1730405;80;28057;-89
2022/08/15 05:55:54;;;;;;;6.78;4.12;;;;;;;19.83;100.00;97327.38;1728642;80;28097;-89
2022/08/15 05:58:42;;;;;;;7.85;4.20;;;;;;;19.95;100.00;97325.34;1727932;80;28101;-89
2022/08/15 06:01:12;;;;;;;6.65;4.53;;;;;;;20.10;100.00;97324.41;1725356;81;28102;-89
2022/08/15 06:03:42;;;;;;;4.90;4.12;;;;;;;20.20;100.00;97324.88;1727426;80;28244;-88
2022/08/15 06:06:15;;;;;;;4.58;3.62;;;;;;;20.28;100.00;97329.55;1743979;80;28041;-89
2022/08/15 06:08:48;;;;;;;5.53;4.08;;;;;;;20.35;100.00;97323.78;1736107;80;28010;-89
2022/08/15 06:11:18;;;;;;;6.78;4.40;;;;;;;20.33;100.00;97325.83;1743392;80;27994;-87
2022/08/15 06:14:03;;;;;;;7.15;4.87;;;;;;;20.32;100.00;97329.50;1737047;80;28074;-89
2022/08/15 06:16:35;;;;;;;8.93;4.50;;;;;;;20.30;100.00;97322.69;1715958;80;28070;-87
2022/08/15 06:19:06;;;;;;;5.50;4.25;;;;;;;20.25;100.00;97325.94;1687937;82;48870;-88
2022/08/15 06:21:42;;;;;;;6.95;4.12;;;;;;;20.22;100.00;97327.67;1716137;80;28103;-89
2022/08/15 06:24:29;;;;;;;5.22;4.50;;;;;;;20.19;100.00;97332.03;1690286;81;28077;-89
2022/08/15 06:27:31;;;;;;;6.05;5.05;;;;;;;20.18;100.00;97339.70;1727766;80;28189;-89
2022/08/15 06:29:59;;;;;;;;;;;;;;;20.23;100.00;97347.91;1746222;80;28157;-89
2022/08/15 06:32:40;;;;;;;6.97;4.08;;;;;;;20.27;100.00;97348.34;1745468;80;24846;-89
2022/08/15 06:35:14;;;;;;;;;;;;;;;20.31;100.00;97346.92;1736395;80;28097;-88
2022/08/15 06:37:47;;;;;;;5.40;4.70;;;;;;;20.37;100.00;97343.52;1724862;81;26072;-86
2022/08/15 06:40:20;;;;;;;5.05;4.35;;;;;;;20.48;100.00;97346.14;1728257;80;28208;-89
2022/08/15 06:42:47;;;;;;;5.47;4.33;;;;;;;20.57;100.00;97349.77;1699631;82;28096;-87
2022/08/15 06:45:23;;;;;;;6.83;4.62;;;;;;;20.70;100.00;97339.21;1734653;80;28128;-89
2022/08/15 06:47:53;;;;;;;5.47;4.72;;;;;;;20.72;100.00;97342.50;1727212;80;28079;-89
2022/08/15 06:50:22;;;;;;;5.60;4.80;;;;;;;20.73;100.00;97342.79;1743685;80;28153;-89
2022/08/15 06:52:58;;;;;;;5.22;4.65;;;;;;;20.76;100.00;97340.26;1742328;80;28205;-88
2022/08/15 06:55:28;;;;;;;6.37;4.83;;;;;;;20.82;100.00;97338.97;1709674;80;28099;-88
2022/08/15 06:57:58;;;;;;;4.97;4.05;;;;;;;20.85;100.00;97335.89;1735206;80;28092;-88
2022/08/15 07:00:40;;;;;;;6.17;4.80;;;;;;;20.86;100.00;97336.21;1739367;80;28027;-86
2022/08/15 07:03:44;;;;;;;6.30;4.55;;;;;;;20.92;100.00;97343.91;1731166;80;28110;-86
2022/08/15 07:06:13;;;;;;;7.33;4.35;;;;;;;20.99;100.00;97338.62;1725425;80;28034;-89
2022/08/15 07:08:53;;;;;;;6.87;4.80;;;;;;;21.07;100.00;97340.58;1740646;80;28117;-87
2022/08/15 07:11:27;;;;;;;5.70;4.42;;;;;;;21.14;100.00;97340.13;1735094;80;28152;-87
2022/08/15 07:14:09;;;;;;;6.47;4.72;;;;;;;21.26;100.00;97339.86;1730498;80;28185;-86
2022/08/15 07:16:57;;;;;;;6.50;4.67;;;;;;;21.30;100.00;97340.27;1735201;80;28090;-87
2022/08/15 07:19:23;;;;;;;4.87;4.37;;;;;;;21.36;100.00;97331.48;1730648;80;28025;-88
2022/08/15 07:21:49;;;;;;;7.10;5.15;;;;;;;21.45;100.00;97337.42;1727168;80;28129;-89
2022/08/15 07:24:22;;;;;;;6.42;4.55;;;;;;;21.48;100.00;97341.03;1738463;80;28083;-90
2022/08/15 07:26:52;;;;;;;6.10;4.90;;;;;;;21.56;100.00;97342.16;1733134;80;28162;-88
2022/08/15 07:29:40;;;;;;;5.80;5.15;;;;;;;21.65;100.00;97354.27;1746987;80;28105;-88
2022/08/15 07:32:10;;;;;;;6.12;4.53;;;;;;;21.72;100.00;97355.08;1707877;82;28223;-86
2022/08/15 07:34:39;;;;;;;6.45;5.05;;;;;;;21.77;100.00;97355.28;1698203;83;28096;-88
2022/08/15 07:37:08;;;;;;;5.90;4.85;;;;;;;21.88;100.00;97352.02;1691743;83;28164;-88
2022/08/15 07:39:41;;;;;;;5.65;4.08;;;;;;;21.96;100.00;97350.52;1739518;80;28138;-87
2022/08/15 07:42:19;;;;;;;6.75;4.92;;;;;;;22.03;100.00;97350.53;1733635;80;28042;-87
2022/08/15 07:44:54;;;;;;;6.42;4.95;;;;;;;22.09;100.00;97351.04;1739027;80;28038;-86
2022/08/15 07:47:24;;;;;;;6.08;4.95;;;;;;;22.19;100.00;97357.28;1725645;80;28111;-88
2022/08/15 07:50:06;;;;;;;6.58;4.65;;;;;;;22.27;100.00;97362.38;1724585;80;28143;-89
2022/08/15 07:52:36;;;;;;;5.28;4.15;;;;;;;22.31;100.00;97354.30;1729675;80;28094;-85
2022/08/15 07:55:18;;;;;;;5.53;4.53;;;;;;;22.39;100.00;97358.06;1739077;80;28183;-86
2022/08/15 07:58:05;;;;;;;5.17;4.17;;;;;;;22.43;100.00;97357.95;1734964;80;28065;-88
2022/08/15 08:00:40;;;;;;;9.43;5.00;;;;;;;22.55;100.00;97360.28;1722339;80;28458;-86
2022/08/15 08:03:13;;;;;;;9.90;5.60;;;;;;;22.64;100.00;97360.90;1728219;81;28053;-88
2022/08/15 08:05:43;;;;;;;6.90;5.33;;;;;;;22.73;100.00;97359.66;1745944;80;28083;-89
2022/08/15 08:08:11;;;;;;;6.28;5.12;;;;;;;22.82;100.00;97355.21;1716783;81;28078;-86
2022/08/15 08:10:40;;;;;;;5.25;4.35;;;;;;;22.91;100.00;97360.61;1718146;82;28157;-89
2022/08/15 08:13:29;;;;;;;;;;;;;;;22.97;100.00;97352.78;1732590;80;28081;-88
2022/08/15 08:16:19;;;;;;;6.58;5.00;;;;;;;23.05;100.00;97354.72;1734575;80;24727;-89
2022/08/15 08:19:07;;;;;;;6.47;4.85;;;;;;;23.12;100.00;97359.52;1702079;83;28107;-90
2022/08/15 08:21:40;;;;;;;6.58;4.55;;;;;;;23.18;100.00;97360.52;1665307;83;28170;-89
2022/08/15 08:24:10;;;;;;;6.17;5.05;;;;;;;23.22;100.00;97360.39;1697424;82;28100;-87
2022/08/15 08:26:55;;;;;;;5.97;5.37;;;;;;;23.29;100.00;97362.52;1675128;83;28112;-88
2022/08/15 08:29:37;;;;;;;6.40;5.12;;;;;;;23.39;100.00;97364.72;1700301;80;28270;-89
2022/08/15 08:32:19;;;;;;;5.67;4.60;;;;;;;23.47;100.00;97362.63;1744918;80;28082;-89
2022/08/15 08:35:05;;;;;;;8.03;5.12;;;;;;;23.55;100.00;97368.25;1719103;80;28297;-89
2022/08/15 08:38:07;;;;;;;5.92;4.60;;;;;;;23.61;100.00;97359.38;1746269;80;28272;-89
2022/08/15 08:43:46;;;;;;;6.37;4.85;;;;;;;23.75;100.00;97363.59;1670968;83;28104;-90
2022/08/15 08:46:38;;;;;;;6.75;4.75;;;;;;;23.85;100.00;97367.93;1679449;83;28030;-90
2022/08/15 08:49:41;;;;;;;5.85;4.70;;;;;;;23.92;100.00;97363.87;1662265;83;28128;-88
2022/08/15 08:52:22;;;;;;;6.85;4.70;;;;;;;23.97;100.00;97362.19;1663797;82;28155;-90
2022/08/15 08:55:06;;;;;;;6.53;4.90;;;;;;;24.05;100.00;97365.13;1640726;84;28276;-89
2022/08/15 08:57:38;;;;;;;6.35;4.70;;;;;;;24.06;100.00;97363.55;1637929;85;28170;-88
2022/08/15 09:00:14;;;;;;;4.92;4.40;;;;;;;24.16;100.00;97362.56;1669032;82;28191;-89
2022/08/15 09:02:46;;;;;;;5.42;4.85;;;;;;;24.25;100.00;97364.97;1691883;83;28122;-90
2022/08/15 09:05:36;;;;;;;7.12;4.80;;;;;;;24.37;100.00;97368.56;1683192;83;28211;-87
2022/08/15 09:08:11;;;;;;;5.47;4.17;;;;;;;24.62;100.00;97368.51;1692630;82;28124;-89
2022/08/15 09:10:40;;;;;;;6.28;4.35;;;;;;;24.68;100.00;97360.94;1692906;83;28154;-89
2022/08/15 09:15:56;;;;;;;5.33;4.53;;;;;;;24.77;100.00;97357.73;1730748;80;28182;-88
2022/08/15 09:18:35;;;;;;;6.28;5.15;;;;;;;24.86;100.00;97356.42;1736538;80;28074;-88
2022/08/15 09:21:05;;;;;;;5.58;4.12;;;;;;;24.90;100.00;97356.29;1703037;82;28689;-89
2022/08/15 09:23:40;;;;;;;6.42;4.58;;;;;;;24.94;100.00;97356.65;1737317;80;28111;-89
2022/08/15 09:26:13;;;;;;;4.95;4.42;;;;;;;24.94;100.00;97348.10;1733836;80;28062;-88
2022/08/15 09:28:43;;;;;;;5.03;4.50;;;;;;;25.07;100.00;97344.45;1739180;80;28179;-89
2022/08/15 09:31:25;;;;;;;5.33;4.67;;;;;;;25.15;100.00;97345.47;1740931;80;28168;-88
2022/08/15 09:34:06;;;;;;;5.83;4.22;;;;;;;25.24;100.00;97345.98;1739078;80;28046;-87
2022/08/15 09:36:48;;;;;;;4.72;4.22;;;;;;;25.37;100.00;97342.59;1722578;80;28241;-88
2022/08/15 09:39:52;;;;;;;5.03;4.20;;;;;;;25.48;100.00;97337.50;1731755;80;28277;-89
2022/08/15 09:42:40;;;;;;;6.03;4.53;;;;;;;25.54;100.00;97333.39;1733810;80;28089;-89
2022/08/15 09:45:29;;;;;;;5.60;4.90;;;;;;;25.58;100.00;97333.80;1720408;80;28104;-87
2022/08/15 09:48:06;;;;;;;6.15;4.55;;;;;;;25.59;100.00;97334.06;1735895;80;28011;-90
2022/08/15 09:50:53;;;;;;;7.72;4.15;;;;;;;25.60;100.00;97327.67;1697241;82;28227;-88
2022/08/15 09:53:41;;;;;;;4.50;4.10;;;;;;;25.64;100.00;97328.31;1683694;83;28104;-87
2022/08/15 09:56:11;;;;;;;7.78;4.67;;;;;;;25.72;100.00;97328.52;1700219;81;28065;-88
2022/08/15 09:58:54;;;;;;;5.03;4.35;;;;;;;25.83;100.00;97327.20;1656855;84;28113;-89
2022/08/15 10:01:24;;;;;;;5.25;4.62;;;;;;;26.01;100.00;97320.94;1733081;80;28075;-89
2022/08/15 10:03:53;;;;;;;4.90;4.37;;;;;;;26.11;100.00;97315.81;1721530;80;28088;-89
2022/08/15 10:06:29;;;;;;;6.70;4.33;;;;;;;26.05;100.00;97314.06;1725568;80;28073;-89
2022/08/15 10:09:05;;;;;;;7.08;4.28;;;;;;;26.02;100.00;97312.38;1746690;80;28126;-89
2022/08/15 10:11:35;;;;;;;6.85;4.65;;;;;;;26.14;100.00;97315.33;1725218;80;28090;-88
2022/08/15 10:14:06;;;;;;;5.15;4.58;;;;;;;26.28;100.00;97319.17;1693972;81;28110;-87
2022/08/15 10:16:42;;;;;;;12.07;4.85;;;;;;;26.47;100.00;97312.09;1728663;80;28096;-88
2022/08/15 10:19:11;;;;;;;5.40;4.12;;;;;;;26.65;100.00;97313.30;1741270;80;28088;-88
2022/08/15 10:21:41;;;;;;;4.75;4.25;;;;;;;26.81;100.00;97310.92;1730333;80;28082;-88
2022/08/15 10:24:23;;;;;;;5.42;4.28;;;;;;;26.89;100.00;97299.85;1738196;80;28086;-89
2022/08/15 10:27:22;;;;;;;5.47;4.37;;;;;;;26.98;100.00;97300.57;1740438;80;28090;-89
2022/08/15 10:29:47;;;;;;;4.85;4.10;;;;;;;27.15;100.00;97307.34;1735583;80;28067;-87
2022/08/15 10:32:23;;;;;;;5.03;4.50;;;;;;;27.15;100.00;97299.28;1721211;80;28082;-87
2022/08/15 10:34:53;;;;;;;5.50;4.55;;;;;;;27.17;100.00;97295.81;1747724;80;28065;-88
2022/08/15 10:37:27;;;;;;;5.62;4.70;;;;;;;27.16;100.00;97294.73;1725890;80;28240;-87
2022/08/15 10:40:14;;;;;;;5.95;4.25;;;;;;;27.10;100.00;97295.16;1732941;80;28123;-88
2022/08/15 10:42:54;;;;;;;5.10;4.35;;;;;;;27.16;100.00;97298.77;1742437;80;28097;-87
2022/08/15 10:45:29;;;;;;;4.85;4.35;;;;;;;27.27;100.00;97298.71;1685692;81;28122;-87
2022/08/15 10:48:11;;;;;;;6.05;4.87;;;;;;;27.32;100.00;97300.67;1699903;81;28290;-87
2022/08/15 10:53:27;;;;;;;6.08;4.20;;;;;;;27.58;100.00;97298.75;1671234;82;28276;-87
2022/08/15 10:55:55;;;;;;;;;;;;;;;27.49;100.00;97292.91;1745820;80;28125;-88
2022/08/15 10:58:32;;;;;;;4.85;4.22;;;;;;;27.45;100.00;97297.67;1731741;80;22205;-89
2022/08/15 11:01:14;;;;;;;5.83;4.60;;;;;;;27.33;100.00;97291.00;1735252;80;28145;-88
2022/08/15 11:03:52;;;;;;;4.78;4.37;;;;;;;27.30;100.00;97292.03;1649401;85;28114;-88
2022/08/15 11:06:23;;;;;;;6.33;4.45;;;;;;;27.26;100.00;97290.36;1725282;81;28094;-88
2022/08/15 11:09:00;;;;;;;5.40;3.40;;;;;;;27.39;100.00;97291.91;1721880;81;28683;-87
2022/08/15 11:11:26;;;;;;;5.22;4.10;;;;;;;27.42;100.00;97290.10;1738083;80;28271;-88
2022/08/15 11:13:59;;;;;;;5.10;4.47;;;;;;;27.32;100.00;97297.98;1739420;80;28040;-87
2022/08/15 11:16:32;;;;;;;4.65;4.22;;;;;;;27.27;100.00;97287.97;1734859;80;28024;-86
2022/08/15 11:19:02;;;;;;;4.75;4.28;;;;;;;27.23;100.00;97287.32;1737946;80;28098;-86
2022/08/15 11:21:44;;;;;;;5.50;4.58;;;;;;;27.28;100.00;97284.72;1733953;80;28239;-86
2022/08/15 11:24:11;;;;;;;5.00;4.20;;;;;;;27.39;100.00;97293.25;1723747;81;28037;-86
2022/08/15 11:26:41;;;;;;;6.40;4.40;;;;;;;27.41;100.00;97287.13;1721553;80;28120;-87
2022/08/15 11:29:16;;;;;;;5.92;4.47;;;;;;;27.33;100.00;97286.19;1735626;80;28017;-88
2022/08/15 11:31:58;;;;;;;5.35;4.08;;;;;;;27.26;100.00;97289.02;1728068;80;28016;-88
2022/08/15 11:34:29;;;;;;;6.07;4.90;;;;;;;27.22;100.00;97293.77;1732366;80;28204;-88
2022/08/15 11:37:14;;;;;;;6.62;4.30;;;;;;;27.22;100.00;97291.88;1735501;80;28104;-90
2022/08/15 11:39:44;;;;;;;4.97;4.47;;;;;;;27.30;100.00;97289.34;1722486;81;28216;-88
2022/08/15 11:42:14;;;;;;;5.40;4.90;;;;;;;27.38;100.00;97286.27;1732824;80;28155;-88
2022/08/15 11:44:59;;;;;;;4.85;4.33;;;;;;;27.48;100.00;97284.58;1742888;80;43049;-90
2022/08/15 11:47:29;;;;;;;5.55;4.65;;;;;;;27.46;100.00;97288.03;1718038;80;28038;-87
2022/08/15 11:50:02;;;;;;;4.78;4.28;;;;;;;27.50;100.00;97284.34;1722271;80;28100;-89
2022/08/15 11:52:35;;;;;;;4.90;4.33;;;;;;;27.56;100.00;97286.07;1743548;80;28223;-88
2022/08/15 11:55:16;;;;;;;5.72;4.62;;;;;;;27.63;100.00;97286.73;1749344;79;28051;-89
2022/08/15 11:57:49;;;;;;;10.68;5.10;;;;;;;27.64;100.00;97287.03;1732950;81;28057;-88
2022/08/15 12:00:43;;;;;;;6.70;4.70;;;;;;;27.66;100.00;97280.86;1717868;81;28011;-88
2022/08/15 12:03:19;;;;;;;5.95;4.17;;;;;;;27.68;100.00;97283.31;1736413;80;28189;-89
2022/08/15 12:05:46;;;;;;;4.28;3.87;;;;;;;27.60;100.00;97280.52;1731264;80;28228;-89
2022/08/15 12:08:23;;;;;;;5.55;5.05;;;;;;;27.55;100.00;97279.61;1740536;80;28011;-88